EGFF

Cardiff International Airport

Cardiff, United Kingdom
METAR EGFF 211250Z AUTO 06010KT 030V090 9999 SCT020 08/03 Q1027
Observed Flight Rules
Feb-21 @ 12:50 UTC (22 minutes ago) Visual Flight Rules
Wind Visibility Clouds
60° at 10 knots 10,000+ meters
  • Scattered at 2,000' AGL
Temperatures Readings
Current 8°C / 46°F
Dewpoint 3°C / 37°F
Humidity 71%
Altimeter 30.32" Hg
Pressure 1027 hPa
Elevation 67
METAR EGFF 211250Z AUTO 06010KT 030V090 9999 SCT020 08/03 Q1027
Observed Flight Rules
Feb-21 @ 12:50 UTC
(22 minutes ago)
VFR
Wind Visibility
60° at 10 knots 10,000+ meters
Clouds
  • Scattered at 2,000' AGL
Temperature Dewpoint
8°C / 46°F 3°C / 37°F
Humidity Altimeter Pressure
71% 30.32" Hg 1027 hPa